Time;durP1;ratioP1;P1;durP2;ratioP2;P2;SDS_P1;SDS_P2;PMS_P1;PMS_P2;Temp;Humidity;BMP_temperature;BMP_pressure;BME280_temperature;BME280_humidity;BME280_pressure;Samples;Min_cycle;Max_cycle;Signal;HPM_P1;HPM_P2
2023/04/23 00:00:11;;;;;;;1999.90;999.90;;;11.70;99.90;;;;;;5011693;28;20440;-71
2023/04/23 00:02:37;;;;;;;1999.90;999.90;;;11.70;99.90;;;;;;5011416;28;20408;-71
2023/04/23 00:05:05;;;;;;;1999.90;999.90;;;11.70;99.90;;;;;;5011810;28;20405;-71
2023/04/23 00:07:32;;;;;;;1999.90;999.90;;;11.60;99.90;;;;;;5011597;28;20452;-71
2023/04/23 00:09:59;;;;;;;1999.90;999.90;;;11.60;99.90;;;;;;5011674;28;20898;-71
2023/04/23 00:12:25;;;;;;;1999.90;999.90;;;11.60;99.90;;;;;;5011254;28;20416;-71
2023/04/23 00:14:51;;;;;;;1999.90;999.90;;;11.60;99.90;;;;;;5014443;28;20466;-72
2023/04/23 00:17:17;;;;;;;1999.90;999.90;;;11.50;99.90;;;;;;5015154;28;20462;-71
2023/04/23 00:19:42;;;;;;;1999.90;999.90;;;11.60;99.90;;;;;;5015118;28;20400;-71
2023/04/23 00:22:08;;;;;;;1999.90;999.90;;;11.60;99.90;;;;;;5014951;28;20169;-71
2023/04/23 00:24:35;;;;;;;1999.90;999.90;;;11.60;99.90;;;;;;5014665;28;20741;-71
2023/04/23 00:27:01;;;;;;;1999.90;999.90;;;11.50;99.90;;;;;;5013935;28;20224;-71
2023/04/23 00:29:27;;;;;;;1999.90;999.90;;;11.50;99.90;;;;;;5014053;28;20439;-71
2023/04/23 00:31:52;;;;;;;1999.90;999.90;;;11.50;99.90;;;;;;5013649;28;20181;-71
2023/04/23 00:34:18;;;;;;;1999.90;999.90;;;11.50;99.90;;;;;;5014163;28;20205;-71
2023/04/23 00:36:44;;;;;;;1999.90;999.90;;;11.50;99.90;;;;;;5014867;28;20192;-71
2023/04/23 00:39:10;;;;;;;1999.90;999.90;;;11.50;99.90;;;;;;5014760;28;20247;-71
2023/04/23 00:41:35;;;;;;;1999.90;999.90;;;11.50;99.90;;;;;;5014500;28;20176;-71
2023/04/23 00:44:02;;;;;;;1999.90;999.90;;;11.50;99.90;;;;;;5014493;28;20456;-72
2023/04/23 00:46:28;;;;;;;1999.90;999.90;;;11.40;99.90;;;;;;5014508;28;20201;-72
2023/04/23 00:48:54;;;;;;;1999.90;999.90;;;11.30;99.90;;;;;;5014544;28;21068;-72
2023/04/23 00:51:23;;;;;;;1999.90;999.90;;;11.30;99.90;;;;;;5014444;28;20430;-72
2023/04/23 00:53:49;;;;;;;1999.90;999.90;;;11.30;99.90;;;;;;5014380;28;20428;-72
2023/04/23 00:56:16;;;;;;;1999.90;999.90;;;11.30;99.90;;;;;;5014466;28;20478;-72
2023/04/23 00:58:42;;;;;;;1999.90;999.90;;;11.20;99.90;;;;;;5014337;28;20802;-72
2023/04/23 01:01:08;;;;;;;1999.90;999.90;;;11.20;99.90;;;;;;5014051;28;20410;-72
2023/04/23 01:03:36;;;;;;;1999.90;999.90;;;11.20;99.90;;;;;;5014307;28;20803;-72
2023/04/23 01:06:02;;;;;;;1999.90;999.90;;;11.10;99.90;;;;;;5014214;28;20181;-72
2023/04/23 01:08:30;;;;;;;1999.90;999.90;;;11.10;99.90;;;;;;5014154;28;20987;-72
2023/04/23 01:10:56;;;;;;;1999.90;999.90;;;11.00;99.90;;;;;;5013976;28;20431;-72
2023/04/23 01:13:25;;;;;;;1999.90;999.90;;;11.00;99.90;;;;;;5014029;28;20428;-72
2023/04/23 01:15:51;;;;;;;1999.90;999.90;;;10.90;99.90;;;;;;5013997;28;20419;-72
2023/04/23 01:18:19;;;;;;;1999.90;999.90;;;11.00;99.90;;;;;;5014056;28;20413;-72
2023/04/23 01:20:44;;;;;;;1999.90;999.90;;;11.10;99.90;;;;;;5014048;28;20532;-72
2023/04/23 01:23:10;;;;;;;1999.90;999.90;;;11.00;99.90;;;;;;5013643;28;20439;-72
2023/04/23 01:25:36;;;;;;;1999.90;999.90;;;11.10;99.90;;;;;;5012900;28;20550;-72
2023/04/23 01:28:03;;;;;;;1999.90;999.90;;;10.90;99.90;;;;;;5013691;28;20546;-72
2023/04/23 01:30:29;;;;;;;1999.90;999.90;;;10.90;99.90;;;;;;5013815;28;20404;-72
2023/04/23 01:32:55;;;;;;;1999.90;999.90;;;10.90;99.90;;;;;;5013330;28;20486;-72
2023/04/23 01:35:22;;;;;;;1999.90;999.90;;;10.80;99.90;;;;;;5013749;28;20407;-72
2023/04/23 01:37:50;;;;;;;1999.90;999.90;;;10.80;99.90;;;;;;5013753;28;20443;-72
2023/04/23 01:40:16;;;;;;;1999.90;999.90;;;10.70;99.90;;;;;;5013658;28;20450;-72
2023/04/23 01:42:42;;;;;;;1999.90;999.90;;;10.80;99.90;;;;;;5013181;28;20440;-72
2023/04/23 01:45:08;;;;;;;1999.90;999.90;;;10.60;99.90;;;;;;5013855;28;20272;-72
2023/04/23 01:47:35;;;;;;;1999.90;999.90;;;10.50;99.90;;;;;;5013385;28;21023;-72
2023/04/23 01:50:00;;;;;;;1999.90;999.90;;;10.50;99.90;;;;;;5013720;28;20403;-72
2023/04/23 01:52:26;;;;;;;1999.90;999.90;;;;;;;;;;5013029;28;21104;-72
2023/04/23 01:54:52;;;;;;;1999.90;999.90;;;10.40;99.90;;;;;;5013324;28;20260;-71
2023/04/23 01:57:25;;;;;;;1999.90;999.90;;;10.40;99.90;;;;;;5013307;28;20416;-71
2023/04/23 01:59:51;;;;;;;1999.90;999.90;;;10.30;99.90;;;;;;5013261;28;20212;-71
2023/04/23 02:02:16;;;;;;;1999.90;999.90;;;10.30;99.90;;;;;;5012988;28;20408;-71
2023/04/23 02:04:44;;;;;;;1999.90;999.90;;;10.30;99.90;;;;;;5013167;28;20954;-71
2023/04/23 02:07:09;;;;;;;1999.90;999.90;;;10.40;99.90;;;;;;5013124;28;20196;-71
2023/04/23 02:09:36;;;;;;;1999.90;999.90;;;10.30;99.90;;;;;;5013119;28;20408;-71
2023/04/23 02:12:01;;;;;;;1999.90;999.90;;;10.30;99.90;;;;;;5012727;28;20177;-71
2023/04/23 02:14:27;;;;;;;1999.90;999.90;;;10.30;99.90;;;;;;5012953;28;20526;-71
2023/04/23 02:16:53;;;;;;;1999.90;999.90;;;10.20;99.90;;;;;;5012976;28;20178;-71
2023/04/23 02:19:19;;;;;;;1999.90;999.90;;;10.20;99.90;;;;;;5012922;28;20469;-71
2023/04/23 02:21:44;;;;;;;1999.90;999.90;;;10.30;99.90;;;;;;5012610;28;20169;-71
2023/04/23 02:24:10;;;;;;;1999.90;999.90;;;10.30;99.90;;;;;;5012824;28;20201;-71
2023/04/23 02:26:36;;;;;;;1999.90;999.90;;;10.30;99.90;;;;;;5012671;28;20243;-71
2023/04/23 02:29:01;;;;;;;1999.90;999.90;;;10.40;99.90;;;;;;5012729;28;20447;-71
2023/04/23 02:31:27;;;;;;;1999.90;999.90;;;10.30;99.90;;;;;;5012491;28;20172;-72
2023/04/23 02:33:52;;;;;;;1999.90;999.90;;;10.40;99.90;;;;;;5012648;28;20192;-71
2023/04/23 02:36:18;;;;;;;1999.90;999.90;;;10.40;99.90;;;;;;5012315;28;20262;-71
2023/04/23 02:38:44;;;;;;;1999.90;999.90;;;10.30;99.90;;;;;;5012615;28;20558;-71
2023/04/23 02:41:10;;;;;;;1999.90;999.90;;;10.50;99.90;;;;;;5012164;28;20219;-71
2023/04/23 02:43:36;;;;;;;1999.90;999.90;;;10.50;99.90;;;;;;5012650;28;21052;-71
2023/04/23 02:46:06;;;;;;;1999.90;999.90;;;10.50;99.90;;;;;;5012537;28;20505;-71
2023/04/23 02:48:37;;;;;;;1999.90;999.90;;;10.50;99.90;;;;;;5012570;28;20205;-71
2023/04/23 02:51:04;;;;;;;1999.90;999.90;;;10.50;99.90;;;;;;5012200;28;20410;-71
2023/04/23 02:53:29;;;;;;;1999.90;999.90;;;10.50;99.90;;;;;;5012314;28;20459;-72
2023/04/23 02:55:55;;;;;;;1999.90;999.90;;;10.60;99.90;;;;;;5012294;28;20431;-71
2023/04/23 02:58:21;;;;;;;1999.90;999.90;;;10.60;99.90;;;;;;5012367;28;20171;-72
2023/04/23 03:00:46;;;;;;;1999.90;999.90;;;10.60;99.90;;;;;;5012349;28;20175;-71
2023/04/23 03:03:12;;;;;;;1999.90;999.90;;;10.70;99.90;;;;;;5012080;28;20197;-71
2023/04/23 03:05:38;;;;;;;1999.90;999.90;;;10.60;99.90;;;;;;5012312;28;20169;-71
2023/04/23 03:08:03;;;;;;;1999.90;999.90;;;10.60;99.90;;;;;;5012066;28;20235;-71
2023/04/23 03:10:29;;;;;;;1999.90;999.90;;;10.60;99.90;;;;;;5012155;28;20445;-72
2023/04/23 03:12:55;;;;;;;1999.90;999.90;;;10.50;99.90;;;;;;5011841;28;20243;-71
2023/04/23 03:15:21;;;;;;;1999.90;999.90;;;10.60;99.90;;;;;;5012335;28;20173;-71
2023/04/23 03:17:46;;;;;;;1999.90;999.90;;;10.70;99.90;;;;;;5012158;28;20494;-71
2023/04/23 03:20:13;;;;;;;1999.90;999.90;;;10.80;99.90;;;;;;5012091;28;20411;-71
2023/04/23 03:22:39;;;;;;;1999.90;999.90;;;10.70;99.90;;;;;;5011794;28;20187;-71
2023/04/23 03:25:05;;;;;;;1999.90;999.90;;;10.70;99.90;;;;;;5011955;28;20411;-71
2023/04/23 03:27:31;;;;;;;1999.90;999.90;;;10.80;99.90;;;;;;5012025;28;20192;-71
2023/04/23 03:29:56;;;;;;;1999.90;999.90;;;10.80;99.90;;;;;;5012167;28;20774;-71
2023/04/23 03:32:23;;;;;;;1999.90;999.90;;;10.80;99.90;;;;;;5011769;28;20174;-71
2023/04/23 03:34:48;;;;;;;1999.90;999.90;;;10.90;99.90;;;;;;5011909;28;20185;-71
2023/04/23 03:37:14;;;;;;;1999.90;999.90;;;10.80;99.90;;;;;;5011957;28;20400;-71
2023/04/23 03:39:39;;;;;;;1999.90;999.90;;;10.90;99.90;;;;;;5011865;28;20239;-71
2023/04/23 03:42:05;;;;;;;1999.90;999.90;;;10.80;99.90;;;;;;5011722;28;20841;-72
2023/04/23 03:44:30;;;;;;;1999.90;999.90;;;10.80;99.90;;;;;;5011740;28;20633;-72
2023/04/23 03:46:56;;;;;;;1999.90;999.90;;;10.70;99.90;;;;;;5011826;28;20227;-71
2023/04/23 03:49:21;;;;;;;1999.90;999.90;;;10.80;99.90;;;;;;5014349;28;20650;-72
2023/04/23 03:51:47;;;;;;;1999.90;999.90;;;10.90;99.90;;;;;;5015381;28;20165;-72
2023/04/23 03:54:13;;;;;;;1999.90;999.90;;;10.90;99.90;;;;;;5015510;28;20251;-72
2023/04/23 03:56:38;;;;;;;1999.90;999.90;;;10.90;99.90;;;;;;5015607;28;20224;-72
2023/04/23 03:59:04;;;;;;;1999.90;999.90;;;10.90;99.90;;;;;;5015533;28;20546;-72
2023/04/23 04:01:31;;;;;;;1999.90;999.90;;;10.90;99.90;;;;;;5015253;28;20671;-72
2023/04/23 04:03:57;;;;;;;1999.90;999.90;;;10.80;99.90;;;;;;5015429;28;20201;-72
2023/04/23 04:06:22;;;;;;;1999.90;999.90;;;10.90;99.90;;;;;;5015380;28;20495;-72
2023/04/23 04:08:48;;;;;;;1999.90;999.90;;;10.80;99.90;;;;;;5015203;28;20679;-72
2023/04/23 04:11:14;;;;;;;1999.90;999.90;;;10.80;99.90;;;;;;5015047;28;20264;-72
2023/04/23 04:13:39;;;;;;;1999.90;999.90;;;10.80;99.90;;;;;;5015229;28;20693;-72
2023/04/23 04:16:05;;;;;;;1999.90;999.90;;;10.90;99.90;;;;;;5015211;28;20545;-72
2023/04/23 04:18:30;;;;;;;1999.90;999.90;;;10.80;99.90;;;;;;5015182;28;20708;-72
2023/04/23 04:20:56;;;;;;;1999.90;999.90;;;10.80;99.90;;;;;;5014861;28;20182;-72
2023/04/23 04:23:22;;;;;;;1999.90;999.90;;;10.80;99.90;;;;;;5014972;28;20575;-72
2023/04/23 04:25:49;;;;;;;1999.90;999.90;;;10.80;99.90;;;;;;5015018;28;20178;-72
2023/04/23 04:28:15;;;;;;;1999.90;999.90;;;10.80;99.90;;;;;;5014553;28;20228;-71
2023/04/23 04:30:41;;;;;;;1999.90;999.90;;;10.80;99.90;;;;;;5014962;28;20440;-72
2023/04/23 04:33:07;;;;;;;1999.90;999.90;;;10.80;99.90;;;;;;5014593;28;20818;-72
2023/04/23 04:35:33;;;;;;;1999.90;999.90;;;10.80;99.90;;;;;;5014870;28;20493;-71
2023/04/23 04:37:59;;;;;;;1999.90;999.90;;;10.90;99.90;;;;;;5014731;28;20507;-71
2023/04/23 04:40:25;;;;;;;1999.90;999.90;;;10.80;99.90;;;;;;5014778;28;20261;-71
2023/04/23 04:42:51;;;;;;;1999.90;999.90;;;10.90;99.90;;;;;;5014431;28;20287;-71
2023/04/23 04:45:17;;;;;;;1999.90;999.90;;;10.90;99.90;;;;;;5014649;28;20465;-72
2023/04/23 04:47:43;;;;;;;1999.90;999.90;;;10.90;99.90;;;;;;5014569;28;21159;-72
2023/04/23 04:50:09;;;;;;;1999.90;999.90;;;11.00;99.90;;;;;;5014606;28;20631;-72
2023/04/23 04:52:35;;;;;;;1999.90;999.90;;;10.70;99.90;;;;;;5014187;28;20166;-71
2023/04/23 04:55:01;;;;;;;1999.90;999.90;;;11.10;99.90;;;;;;5014582;28;20462;-71
2023/04/23 04:57:26;;;;;;;1999.90;999.90;;;11.10;99.90;;;;;;5014440;28;20413;-71
2023/04/23 04:59:52;;;;;;;1999.90;999.90;;;11.10;99.90;;;;;;5014285;28;20184;-71
2023/04/23 05:02:20;;;;;;;1999.90;999.90;;;11.10;99.90;;;;;;5014119;28;20635;-72
2023/04/23 05:04:45;;;;;;;1999.90;999.90;;;11.20;99.90;;;;;;5014407;28;20520;-71
2023/04/23 05:07:11;;;;;;;1999.90;999.90;;;11.20;99.90;;;;;;5014135;28;20935;-72
2023/04/23 05:09:36;;;;;;;1999.90;999.90;;;11.20;99.90;;;;;;5014356;28;20184;-72
2023/04/23 05:12:02;;;;;;;1999.90;999.90;;;11.20;99.90;;;;;;5013933;28;20632;-71
2023/04/23 05:14:28;;;;;;;1999.90;999.90;;;11.20;99.90;;;;;;5014200;28;20557;-72
2023/04/23 05:16:54;;;;;;;1999.90;999.90;;;11.20;99.90;;;;;;5014175;28;20173;-72
2023/04/23 05:19:19;;;;;;;1999.90;999.90;;;11.20;99.90;;;;;;5014126;28;20410;-72
2023/04/23 05:21:45;;;;;;;1999.90;999.90;;;11.30;99.90;;;;;;5013680;28;20173;-72
2023/04/23 05:24:10;;;;;;;1999.90;999.90;;;11.30;99.90;;;;;;5014081;28;20618;-72
2023/04/23 05:26:37;;;;;;;1999.90;999.90;;;11.40;99.90;;;;;;5013956;28;20263;-72
2023/04/23 05:29:03;;;;;;;1999.90;999.90;;;11.50;99.90;;;;;;5013941;28;20655;-72
2023/04/23 05:31:28;;;;;;;1999.90;999.90;;;11.50;99.90;;;;;;5013629;28;20411;-72
2023/04/23 05:33:54;;;;;;;1999.90;999.90;;;11.70;99.90;;;;;;5014023;28;20428;-72
2023/04/23 05:36:19;;;;;;;1999.90;999.90;;;11.70;99.90;;;;;;5013809;28;20166;-72
2023/04/23 05:38:46;;;;;;;1999.90;999.90;;;11.80;99.90;;;;;;5013938;28;20552;-72
2023/04/23 05:41:11;;;;;;;1999.90;999.90;;;11.90;99.90;;;;;;5013420;28;20655;-72
2023/04/23 05:43:37;;;;;;;1999.90;999.90;;;11.90;99.90;;;;;;5013486;28;20487;-72
2023/04/23 05:46:05;;;;;;;1999.90;999.90;;;12.00;99.90;;;;;;5013681;28;20175;-72
2023/04/23 05:48:30;;;;;;;1999.90;999.90;;;12.00;99.90;;;;;;5013444;28;20686;-72
2023/04/23 05:50:56;;;;;;;1999.90;999.90;;;12.00;99.90;;;;;;5013243;28;20415;-72
2023/04/23 05:53:22;;;;;;;1999.90;999.90;;;12.10;99.90;;;;;;5013287;28;20182;-72
2023/04/23 05:55:47;;;;;;;1999.90;999.90;;;12.10;99.90;;;;;;5013415;28;20411;-72
2023/04/23 05:58:14;;;;;;;1999.90;999.90;;;12.20;99.90;;;;;;5013327;28;20176;-71
2023/04/23 06:00:40;;;;;;;1999.90;999.90;;;12.30;99.90;;;;;;5013314;28;20705;-72
2023/04/23 06:03:06;;;;;;;1999.90;999.90;;;12.40;99.90;;;;;;5012891;28;20569;-72
2023/04/23 06:05:31;;;;;;;1999.90;999.90;;;12.50;99.90;;;;;;5013140;28;20243;-71
2023/04/23 06:07:57;;;;;;;1999.90;999.90;;;12.60;99.90;;;;;;5013106;28;20584;-72
2023/04/23 06:10:23;;;;;;;1999.90;999.90;;;12.60;99.90;;;;;;5013019;28;20213;-72
2023/04/23 06:12:48;;;;;;;1999.90;999.90;;;12.70;99.90;;;;;;5012313;28;20192;-72
2023/04/23 06:15:14;;;;;;;1999.90;999.90;;;12.70;99.90;;;;;;5012984;28;20177;-72
2023/04/23 06:17:40;;;;;;;1999.90;999.90;;;12.80;99.90;;;;;;5013020;28;20169;-72
2023/04/23 06:20:07;;;;;;;1999.90;999.90;;;12.90;99.90;;;;;;5012859;28;20244;-72
2023/04/23 06:22:33;;;;;;;1999.90;999.90;;;13.00;99.90;;;;;;5012604;28;20172;-72
2023/04/23 06:24:59;;;;;;;1999.90;999.90;;;13.10;99.90;;;;;;5012866;28;20776;-72
2023/04/23 06:27:25;;;;;;;1999.90;999.90;;;13.20;99.90;;;;;;5012782;28;20199;-71
2023/04/23 06:29:51;;;;;;;1999.90;999.90;;;13.30;99.90;;;;;;5012850;28;20159;-71
2023/04/23 06:32:17;;;;;;;1999.90;999.90;;;13.30;99.90;;;;;;5012378;28;20399;-72
2023/04/23 06:34:42;;;;;;;1999.90;999.90;;;13.40;99.90;;;;;;5012599;28;20192;-72
2023/04/23 06:37:08;;;;;;;1999.90;999.90;;;13.50;99.90;;;;;;5012686;28;20173;-72
2023/04/23 06:39:33;;;;;;;1999.90;999.90;;;13.60;99.90;;;;;;5013173;28;20257;-72
2023/04/23 06:41:59;;;;;;;1999.90;999.90;;;13.70;99.90;;;;;;5012362;28;20175;-71
2023/04/23 06:44:24;;;;;;;1999.90;999.90;;;13.80;99.90;;;;;;5012413;28;20261;-71
2023/04/23 06:46:50;;;;;;;1999.90;999.90;;;13.90;99.90;;;;;;5012447;28;20172;-72
2023/04/23 06:49:16;;;;;;;1999.90;999.90;;;13.90;99.90;;;;;;5012449;28;20178;-72
2023/04/23 06:51:41;;;;;;;1999.90;999.90;;;14.10;99.90;;;;;;5012162;28;20171;-72
2023/04/23 06:54:07;;;;;;;1999.90;999.90;;;14.10;99.90;;;;;;5012357;28;20326;-72
2023/04/23 06:56:32;;;;;;;1999.90;999.90;;;14.20;99.90;;;;;;5012426;28;20252;-72
2023/04/23 06:58:58;;;;;;;1999.90;999.90;;;14.20;99.90;;;;;;5012403;28;20182;-72
2023/04/23 07:01:23;;;;;;;1999.90;999.90;;;14.20;99.90;;;;;;5011943;28;20170;-72
2023/04/23 07:03:51;;;;;;;1999.90;999.90;;;14.30;99.90;;;;;;5012145;28;20562;-72
2023/04/23 07:06:16;;;;;;;1999.90;999.90;;;14.40;99.90;;;;;;5012337;28;20261;-72
2023/04/23 07:08:43;;;;;;;1999.90;999.90;;;14.50;99.90;;;;;;5012593;28;20543;-72
2023/04/23 07:11:09;;;;;;;1999.90;999.90;;;14.70;99.90;;;;;;5012032;28;20157;-72
2023/04/23 07:13:35;;;;;;;1999.90;999.90;;;14.80;99.90;;;;;;5012129;28;20430;-72
2023/04/23 07:16:01;;;;;;;1999.90;999.90;;;14.80;99.90;;;;;;5012171;28;20402;-72
2023/04/23 07:18:26;;;;;;;1999.90;999.90;;;14.90;99.90;;;;;;5012138;28;20173;-72
2023/04/23 07:20:52;;;;;;;1999.90;999.90;;;14.90;99.90;;;;;;5012055;28;20673;-72
2023/04/23 07:23:17;;;;;;;1999.90;999.90;;;15.10;99.90;;;;;;5012769;28;20199;-72
2023/04/23 07:25:43;;;;;;;1999.90;999.90;;;15.20;99.90;;;;;;5016182;28;20174;-72
2023/04/23 07:28:08;;;;;;;1999.90;999.90;;;15.30;99.90;;;;;;5016096;28;20562;-72
2023/04/23 07:30:34;;;;;;;1999.90;999.90;;;15.40;99.90;;;;;;5016027;28;20167;-72
2023/04/23 07:33:00;;;;;;;1999.90;999.90;;;15.40;99.90;;;;;;5015607;28;20202;-72
2023/04/23 07:35:26;;;;;;;1999.90;999.90;;;15.50;99.90;;;;;;5016185;28;20475;-71
2023/04/23 07:37:54;;;;;;;1999.90;999.90;;;15.60;99.90;;;;;;5016022;28;20169;-71
2023/04/23 07:40:21;;;;;;;1999.90;999.90;;;15.50;99.90;;;;;;5015986;28;20184;-71
2023/04/23 07:42:47;;;;;;;1999.90;999.90;;;15.50;99.90;;;;;;5015498;28;20782;-71
2023/04/23 07:45:13;;;;;;;1999.90;999.90;;;15.40;99.90;;;;;;5016110;28;20507;-71
2023/04/23 07:47:39;;;;;;;1999.90;999.90;;;15.40;99.90;;;;;;5015856;28;20462;-72
2023/04/23 07:50:05;;;;;;;1999.90;999.90;;;15.30;99.90;;;;;;5015743;28;20778;-71
2023/04/23 07:52:31;;;;;;;1999.90;999.90;;;15.30;99.90;;;;;;5015324;28;20189;-71
2023/04/23 07:54:56;;;;;;;1999.90;999.90;;;15.20;99.90;;;;;;5015730;28;20822;-71
2023/04/23 07:57:22;;;;;;;1999.90;999.90;;;15.30;99.90;;;;;;5015596;28;20173;-71
2023/04/23 07:59:47;;;;;;;1999.90;999.90;;;15.40;99.90;;;;;;5015523;28;20258;-71
2023/04/23 08:02:13;;;;;;;1999.90;999.90;;;15.40;99.90;;;;;;5015190;28;20274;-71
2023/04/23 08:04:38;;;;;;;1999.90;999.90;;;15.50;99.90;;;;;;5015321;28;20196;-71
2023/04/23 08:07:04;;;;;;;1999.90;999.90;;;15.60;99.90;;;;;;5015328;28;20212;-72
2023/04/23 08:09:30;;;;;;;1999.90;999.90;;;15.70;99.90;;;;;;5015415;28;20165;-71
2023/04/23 08:11:56;;;;;;;1999.90;999.90;;;15.70;99.90;;;;;;5015043;28;20682;-71
2023/04/23 08:14:22;;;;;;;1999.90;999.90;;;15.90;99.90;;;;;;5015148;28;20679;-71
2023/04/23 08:16:47;;;;;;;1999.90;999.90;;;15.90;99.90;;;;;;5015151;28;20424;-71
2023/04/23 08:19:13;;;;;;;1999.90;999.90;;;15.80;99.90;;;;;;5015165;28;20204;-71
2023/04/23 08:21:38;;;;;;;1999.90;999.90;;;15.80;99.90;;;;;;5014896;28;20807;-71
2023/04/23 08:24:06;;;;;;;1999.90;999.90;;;15.90;99.90;;;;;;5015092;28;20189;-71
2023/04/23 08:26:32;;;;;;;1999.90;999.90;;;16.10;99.90;;;;;;5015072;28;20234;-71
2023/04/23 08:28:59;;;;;;;1999.90;999.90;;;16.20;99.90;;;;;;5014831;28;20462;-71
2023/04/23 08:31:25;;;;;;;1999.90;999.90;;;16.30;99.90;;;;;;5014874;28;20161;-71
2023/04/23 08:33:51;;;;;;;1999.90;999.90;;;16.50;99.90;;;;;;5014289;28;20771;-71
2023/04/23 08:36:16;;;;;;;1999.90;999.90;;;16.60;99.90;;;;;;5015027;28;20438;-71
2023/04/23 08:38:42;;;;;;;1999.90;999.90;;;16.70;99.90;;;;;;5014843;28;20777;-71
2023/04/23 08:41:12;;;;;;;1999.90;999.90;;;16.80;99.90;;;;;;5014262;28;20262;-71
2023/04/23 08:43:44;;;;;;;1999.90;999.90;;;16.90;99.90;;;;;;5014563;28;20700;-71
2023/04/23 08:46:13;;;;;;;1999.90;999.90;;;17.00;99.90;;;;;;5014866;28;20545;-71
2023/04/23 08:48:39;;;;;;;1999.90;999.90;;;17.10;99.90;;;;;;5014664;28;20855;-71
2023/04/23 08:51:08;;;;;;;1999.90;999.90;;;17.30;99.90;;;;;;5014522;28;20948;-71
2023/04/23 08:53:34;;;;;;;1999.90;999.90;;;17.20;99.90;;;;;;5014498;28;20429;-71
2023/04/23 08:56:02;;;;;;;1999.90;999.90;;;17.40;99.90;;;;;;5014572;28;20972;-71
2023/04/23 08:58:28;;;;;;;1999.90;999.90;;;17.60;99.90;;;;;;5014829;28;20495;-71
2023/04/23 09:00:56;;;;;;;1999.90;999.90;;;17.90;99.90;;;;;;5014688;28;20412;-71
2023/04/23 09:03:24;;;;;;;1999.90;999.90;;;18.10;99.90;;;;;;5014654;28;20733;-72
2023/04/23 09:05:51;;;;;;;1999.90;999.90;;;18.30;99.90;;;;;;5015035;28;20471;-72
2023/04/23 09:08:19;;;;;;;1999.90;999.90;;;18.50;99.90;;;;;;5014657;28;20793;-72
2023/04/23 09:10:45;;;;;;;1999.90;999.90;;;18.60;99.90;;;;;;5014789;28;20905;-71
2023/04/23 09:13:12;;;;;;;1999.90;999.90;;;18.70;99.90;;;;;;5014540;28;20458;-71
2023/04/23 09:15:42;;;;;;;1999.90;999.90;;;18.70;99.90;;;;;;5014852;28;20462;-71
2023/04/23 09:18:08;;;;;;;1999.90;999.90;;;18.90;99.90;;;;;;5014927;28;20802;-71
2023/04/23 09:20:34;;;;;;;1999.90;999.90;;;18.80;99.90;;;;;;5014685;28;20418;-71
2023/04/23 09:23:05;;;;;;;1999.90;999.90;;;18.80;99.90;;;;;;5014326;28;20433;-71
2023/04/23 09:25:31;;;;;;;1999.90;999.90;;;18.70;99.90;;;;;;5014279;28;20910;-71
2023/04/23 09:27:57;;;;;;;1999.90;999.90;;;18.50;99.90;;;;;;5013758;28;20504;-71
2023/04/23 09:30:25;;;;;;;1999.90;999.90;;;18.20;99.90;;;;;;5013934;28;20440;-71
2023/04/23 09:32:51;;;;;;;1999.90;999.90;;;18.00;99.90;;;;;;5013427;28;20462;-71
2023/04/23 09:35:20;;;;;;;1999.90;999.90;;;17.90;99.90;;;;;;5013729;28;20501;-72
2023/04/23 09:37:48;;;;;;;1999.90;999.90;;;17.90;99.90;;;;;;5013543;28;20565;-71
2023/04/23 09:40:16;;;;;;;1999.90;999.90;;;18.00;99.90;;;;;;5013671;28;20416;-71
2023/04/23 09:42:51;;;;;;;1999.90;999.90;;;18.10;99.90;;;;;;5013217;28;20413;-71
2023/04/23 09:45:17;;;;;;;1999.90;999.90;;;18.00;99.90;;;;;;5013134;28;20453;-71
2023/04/23 09:47:53;;;;;;;1999.90;999.90;;;18.00;99.90;;;;;;5012898;28;20947;-71
2023/04/23 09:50:30;;;;;;;1999.90;999.90;;;18.00;99.90;;;;;;5013600;28;20493;-71
2023/04/23 09:52:56;;;;;;;1999.90;999.90;;;18.20;99.90;;;;;;5012979;28;20430;-71
2023/04/23 09:55:40;;;;;;;1999.90;999.90;;;18.20;99.90;;;;;;5013555;28;20878;-71
2023/04/23 09:58:14;;;;;;;1999.90;999.90;;;18.00;99.90;;;;;;5013506;28;20188;-71
2023/04/23 10:00:40;;;;;;;1999.90;999.90;;;17.80;99.90;;;;;;5013421;28;20408;-71
2023/04/23 10:03:07;;;;;;;1999.90;999.90;;;17.80;99.90;;;;;;5013400;28;20436;-71
2023/04/23 10:05:40;;;;;;;1999.90;999.90;;;17.80;99.90;;;;;;5013369;28;20504;-71
2023/04/23 10:08:06;;;;;;;1999.90;999.90;;;17.90;99.90;;;;;;5013225;28;20491;-71
2023/04/23 10:10:34;;;;;;;1999.90;999.90;;;18.10;99.90;;;;;;5013103;28;20401;-71
2023/04/23 10:13:00;;;;;;;1999.90;999.90;;;18.20;99.90;;;;;;5012704;28;20427;-71
2023/04/23 10:15:26;;;;;;;1999.90;999.90;;;18.40;99.90;;;;;;5012973;28;20438;-71
2023/04/23 10:17:53;;;;;;;1999.90;999.90;;;18.50;99.90;;;;;;5013039;28;20412;-71
2023/04/23 10:20:24;;;;;;;1999.90;999.90;;;18.50;99.90;;;;;;5012962;28;20404;-71
2023/04/23 10:22:52;;;;;;;1999.90;999.90;;;18.60;99.90;;;;;;5012550;28;20429;-71
2023/04/23 10:25:20;;;;;;;1999.90;999.90;;;18.50;99.90;;;;;;5012896;28;20421;-72
2023/04/23 10:27:48;;;;;;;1999.90;999.90;;;18.40;99.90;;;;;;5012742;28;20455;-71
2023/04/23 10:30:14;;;;;;;1999.90;999.90;;;18.40;99.90;;;;;;5012811;28;20831;-71
2023/04/23 10:32:40;;;;;;;1999.90;999.90;;;18.30;99.90;;;;;;5012131;28;20448;-72
2023/04/23 10:35:07;;;;;;;1999.90;999.90;;;18.30;99.90;;;;;;5012709;28;20173;-71
2023/04/23 10:37:34;;;;;;;1999.90;999.90;;;18.30;99.90;;;;;;5012803;28;20799;-70
2023/04/23 10:40:11;;;;;;;1999.90;999.90;;;18.30;99.90;;;;;;5012615;28;20419;-71
2023/04/23 10:42:39;;;;;;;1999.90;999.90;;;18.20;99.90;;;;;;5012421;28;20485;-72
2023/04/23 10:45:16;;;;;;;1999.90;999.90;;;18.30;99.90;;;;;;5012485;28;20794;-71
2023/04/23 10:47:43;;;;;;;1999.90;999.90;;;18.40;99.90;;;;;;5012641;28;20490;-71
2023/04/23 10:50:19;;;;;;;1999.90;999.90;;;18.50;99.90;;;;;;5012654;28;20407;-71
2023/04/23 10:52:50;;;;;;;1999.90;999.90;;;18.80;99.90;;;;;;5012149;28;20403;-71
2023/04/23 10:55:17;;;;;;;1999.90;999.90;;;19.00;99.90;;;;;;5012564;28;20401;-71
2023/04/23 10:57:58;;;;;;;1999.90;999.90;;;19.10;99.90;;;;;;5012285;28;20414;-71
2023/04/23 11:00:25;;;;;;;1999.90;999.90;;;18.80;98.20;;;;;;5012263;28;20431;-72
2023/04/23 11:02:54;;;;;;;1999.90;999.90;;;18.80;99.90;;;;;;5012043;28;20871;-71
2023/04/23 11:05:22;;;;;;;1999.90;999.90;;;18.70;97.40;;;;;;5012184;28;20407;-71
2023/04/23 11:08:06;;;;;;;1999.90;999.90;;;18.70;98.50;;;;;;5012353;28;20496;-71
2023/04/23 11:10:32;;;;;;;1999.90;999.90;;;18.50;99.60;;;;;;5012430;28;20950;-72
2023/04/23 11:13:27;;;;;;;1999.90;999.90;;;18.50;99.90;;;;;;5011911;28;20468;-71
2023/04/23 11:16:13;;;;;;;1999.90;999.90;;;18.50;99.90;;;;;;5012035;28;20404;-72
2023/04/23 11:18:56;;;;;;;1999.90;999.90;;;18.50;99.90;;;;;;5012215;28;20405;-72
2023/04/23 11:21:21;;;;;;;1999.90;999.90;;;18.60;99.90;;;;;;5011695;28;20404;-71
2023/04/23 11:23:47;;;;;;;1999.90;999.90;;;18.70;97.90;;;;;;5011870;28;20760;-71
2023/04/23 11:26:19;;;;;;;1999.90;999.90;;;18.80;98.40;;;;;;5011991;28;20176;-71
2023/04/23 11:28:47;;;;;;;1999.90;999.90;;;18.90;98.40;;;;;;5011881;28;20212;-71
2023/04/23 11:31:14;;;;;;;1999.90;999.90;;;18.90;97.60;;;;;;5011740;28;20410;-71
2023/04/23 11:33:39;;;;;;;1999.90;999.90;;;19.10;99.20;;;;;;5011826;28;20511;-72
2023/04/23 11:36:05;;;;;;;1999.90;999.90;;;19.10;96.50;;;;;;5011978;28;20491;-71
2023/04/23 11:38:34;;;;;;;1999.90;999.90;;;18.90;97.80;;;;;;5012002;28;20168;-71
2023/04/23 11:41:04;;;;;;;1999.90;999.90;;;18.80;98.60;;;;;;5011836;28;20410;-71
2023/04/23 11:43:29;;;;;;;1999.90;999.90;;;18.90;99.90;;;;;;5011705;28;20469;-71
2023/04/23 11:45:56;;;;;;;1999.90;999.90;;;19.00;99.30;;;;;;5011835;28;20414;-71
2023/04/23 11:48:22;;;;;;;1999.90;999.90;;;19.20;99.40;;;;;;5011865;28;20208;-71
2023/04/23 11:50:48;;;;;;;1999.90;999.90;;;19.20;97.30;;;;;;5011745;28;20399;-71
2023/04/23 11:53:15;;;;;;;1999.90;999.90;;;19.40;95.40;;;;;;5011465;28;20430;-71
2023/04/23 11:55:42;;;;;;;1999.90;999.90;;;19.60;93.20;;;;;;5011767;28;20180;-72